sensor_id;sensor_type;location;lat;lon;timestamp;pressure;altitude;pressure_sealevel;temperature;humidity
11415;BME280;5763;42.714;23.244;2024-01-10T00:02:19;95481.03;;;-2.05;55.89
11415;BME280;5763;42.714;23.244;2024-01-10T00:04:48;95598.63;;;-1.19;55.89
11415;BME280;5763;42.714;23.244;2024-01-10T00:07:15;95515.66;;;-1.81;55.79
11415;BME280;5763;42.714;23.244;2024-01-10T00:09:42;95513.81;;;-1.77;55.56
11415;BME280;5763;42.714;23.244;2024-01-10T00:12:11;95523.91;;;-1.71;55.82
11415;BME280;5763;42.714;23.244;2024-01-10T00:14:38;95508.72;;;-1.83;55.51
11415;BME280;5763;42.714;23.244;2024-01-10T00:17:06;95421.47;;;-2.14;55.58
11415;BME280;5763;42.714;23.244;2024-01-10T00:19:34;95596.06;;;-0.93;55.17
11415;BME280;5763;42.714;23.244;2024-01-10T00:22:03;95395.69;;;-2.22;55.00
11415;BME280;5763;42.714;23.244;2024-01-10T00:24:30;95486.72;;;-1.73;55.02
11415;BME280;5763;42.714;23.244;2024-01-10T00:26:57;95524.50;;;-1.43;55.03
11415;BME280;5763;42.714;23.244;2024-01-10T00:29:24;95511.38;;;-1.67;54.69
11415;BME280;5763;42.714;23.244;2024-01-10T00:31:52;95586.31;;;-1.02;54.70
11415;BME280;5763;42.714;23.244;2024-01-10T00:34:20;95612.03;;;-1.01;54.27
11415;BME280;5763;42.714;23.244;2024-01-10T00:36:47;95601.22;;;-1.04;54.69
11415;BME280;5763;42.714;23.244;2024-01-10T00:39:16;95526.06;;;-1.42;54.48
11415;BME280;5763;42.714;23.244;2024-01-10T00:41:44;95605.16;;;-0.98;54.72
11415;BME280;5763;42.714;23.244;2024-01-10T00:44:11;95615.16;;;-0.98;54.96
11415;BME280;5763;42.714;23.244;2024-01-10T00:46:38;95610.47;;;-1.02;54.62
11415;BME280;5763;42.714;23.244;2024-01-10T00:49:06;95524.81;;;-1.83;54.70
11415;BME280;5763;42.714;23.244;2024-01-10T00:51:33;95481.72;;;-1.74;54.29
11415;BME280;5763;42.714;23.244;2024-01-10T00:54:00;95610.81;;;-0.84;54.43
11415;BME280;5763;42.714;23.244;2024-01-10T00:56:29;95544.50;;;-1.40;54.87
11415;BME280;5763;42.714;23.244;2024-01-10T00:58:56;95607.72;;;-0.86;54.59
11415;BME280;5763;42.714;23.244;2024-01-10T01:01:24;95526.97;;;-1.34;53.84
11415;BME280;5763;42.714;23.244;2024-01-10T01:03:52;95526.25;;;-1.32;53.95
11415;BME280;5763;42.714;23.244;2024-01-10T01:06:20;95598.59;;;-0.82;53.96
11415;BME280;5763;42.714;23.244;2024-01-10T01:08:47;95538.91;;;-1.13;53.25
11415;BME280;5763;42.714;23.244;2024-01-10T01:11:14;95405.69;;;-2.00;52.63
11415;BME280;5763;42.714;23.244;2024-01-10T01:13:43;95365.06;;;-2.21;53.17
11415;BME280;5763;42.714;23.244;2024-01-10T01:16:10;95435.56;;;-1.83;52.77
11415;BME280;5763;42.714;23.244;2024-01-10T01:18:38;95505.50;;;-1.53;53.17
11415;BME280;5763;42.714;23.244;2024-01-10T01:21:05;95521.47;;;-1.42;53.06
11415;BME280;5763;42.714;23.244;2024-01-10T01:23:32;95442.69;;;-1.90;53.67
11415;BME280;5763;42.714;23.244;2024-01-10T01:26:01;95541.66;;;-1.09;52.88
11415;BME280;5763;42.714;23.244;2024-01-10T01:28:29;95612.31;;;-0.68;52.20
11415;BME280;5763;42.714;23.244;2024-01-10T01:31:02;95568.94;;;-0.88;52.73
11415;BME280;5763;42.714;23.244;2024-01-10T01:33:29;95506.56;;;-1.58;52.93
11415;BME280;5763;42.714;23.244;2024-01-10T01:35:56;95598.94;;;-0.64;52.71
11415;BME280;5763;42.714;23.244;2024-01-10T01:38:24;95506.38;;;-1.30;52.50
11415;BME280;5763;42.714;23.244;2024-01-10T01:40:52;95493.53;;;-1.40;52.55
11415;BME280;5763;42.714;23.244;2024-01-10T01:43:20;95564.75;;;-0.86;52.78
11415;BME280;5763;42.714;23.244;2024-01-10T01:45:51;95608.72;;;-0.75;53.15
11415;BME280;5763;42.714;23.244;2024-01-10T01:48:21;95600.81;;;-1.06;53.01
11415;BME280;5763;42.714;23.244;2024-01-10T01:50:51;95526.25;;;-1.32;53.11
11415;BME280;5763;42.714;23.244;2024-01-10T01:53:20;95510.78;;;-1.19;52.54
11415;BME280;5763;42.714;23.244;2024-01-10T01:55:47;95485.88;;;-1.38;52.79
11415;BME280;5763;42.714;23.244;2024-01-10T01:58:23;95542.94;;;-1.03;52.41
11415;BME280;5763;42.714;23.244;2024-01-10T02:00:51;95578.34;;;-0.57;52.22
11415;BME280;5763;42.714;23.244;2024-01-10T02:03:21;95527.78;;;-0.93;51.35
11415;BME280;5763;42.714;23.244;2024-01-10T02:05:48;95575.59;;;-0.60;51.12
11415;BME280;5763;42.714;23.244;2024-01-10T02:08:16;95575.53;;;-0.63;51.52
11415;BME280;5763;42.714;23.244;2024-01-10T02:10:44;95472.69;;;-1.28;50.87
11415;BME280;5763;42.714;23.244;2024-01-10T02:13:11;95592.06;;;-0.62;50.50
11415;BME280;5763;42.714;23.244;2024-01-10T02:15:38;95415.72;;;-1.78;50.98
11415;BME280;5763;42.714;23.244;2024-01-10T02:18:06;95402.31;;;-1.98;50.79
11415;BME280;5763;42.714;23.244;2024-01-10T02:20:35;95501.00;;;-1.49;49.95
11415;BME280;5763;42.714;23.244;2024-01-10T02:23:04;95571.22;;;-0.68;49.42
11415;BME280;5763;42.714;23.244;2024-01-10T02:25:34;95525.28;;;-1.04;48.80
11415;BME280;5763;42.714;23.244;2024-01-10T02:28:04;95545.72;;;-0.77;48.83
11415;BME280;5763;42.714;23.244;2024-01-10T02:30:31;95538.47;;;-0.96;48.79
11415;BME280;5763;42.714;23.244;2024-01-10T02:32:59;95430.22;;;-1.42;48.62
11415;BME280;5763;42.714;23.244;2024-01-10T02:35:26;95391.50;;;-2.01;48.96
11415;BME280;5763;42.714;23.244;2024-01-10T02:37:54;95568.50;;;-0.91;48.71
11415;BME280;5763;42.714;23.244;2024-01-10T02:40:21;95493.56;;;-1.56;48.65
11415;BME280;5763;42.714;23.244;2024-01-10T02:42:51;95363.59;;;-2.19;47.44
11415;BME280;5763;42.714;23.244;2024-01-10T02:45:18;95600.59;;;-0.78;47.89
11415;BME280;5763;42.714;23.244;2024-01-10T02:47:45;95562.59;;;-0.77;47.54
11415;BME280;5763;42.714;23.244;2024-01-10T02:50:13;95515.41;;;-1.19;47.29
11415;BME280;5763;42.714;23.244;2024-01-10T02:52:40;95490.31;;;-1.27;47.40
11415;BME280;5763;42.714;23.244;2024-01-10T02:55:08;95564.47;;;-1.00;47.49
11415;BME280;5763;42.714;23.244;2024-01-10T02:57:35;95501.28;;;-1.35;47.33
11415;BME280;5763;42.714;23.244;2024-01-10T03:00:08;95572.81;;;-0.86;47.58
11415;BME280;5763;42.714;23.244;2024-01-10T03:02:35;95558.56;;;-1.28;46.96
11415;BME280;5763;42.714;23.244;2024-01-10T03:05:03;95460.13;;;-1.62;47.21
11415;BME280;5763;42.714;23.244;2024-01-10T03:07:30;95435.91;;;-1.84;46.83
11415;BME280;5763;42.714;23.244;2024-01-10T03:09:57;95370.06;;;-2.01;47.04
11415;BME280;5763;42.714;23.244;2024-01-10T03:12:24;95496.03;;;-1.09;46.76
11415;BME280;5763;42.714;23.244;2024-01-10T03:14:52;95567.38;;;-1.08;46.43
11415;BME280;5763;42.714;23.244;2024-01-10T03:17:20;95585.38;;;-0.90;46.28
11415;BME280;5763;42.714;23.244;2024-01-10T03:19:48;95376.22;;;-2.00;46.89
11415;BME280;5763;42.714;23.244;2024-01-10T03:22:15;95543.06;;;-0.97;46.65
11415;BME280;5763;42.714;23.244;2024-01-10T03:24:42;95579.63;;;-0.70;47.01
11415;BME280;5763;42.714;23.244;2024-01-10T03:27:09;95568.94;;;-1.08;47.06
11415;BME280;5763;42.714;23.244;2024-01-10T03:29:37;95583.75;;;-0.76;46.54
11415;BME280;5763;42.714;23.244;2024-01-10T03:32:04;95461.31;;;-1.59;46.59
11415;BME280;5763;42.714;23.244;2024-01-10T03:34:33;95574.88;;;-0.98;47.59
11415;BME280;5763;42.714;23.244;2024-01-10T03:37:00;95528.81;;;-1.19;47.49
11415;BME280;5763;42.714;23.244;2024-01-10T03:39:28;95562.28;;;-1.13;47.17
11415;BME280;5763;42.714;23.244;2024-01-10T03:41:58;95511.56;;;-1.18;47.06
11415;BME280;5763;42.714;23.244;2024-01-10T03:44:28;95596.25;;;-0.83;46.74
11415;BME280;5763;42.714;23.244;2024-01-10T03:46:55;95538.47;;;-0.96;46.94
11415;BME280;5763;42.714;23.244;2024-01-10T03:49:22;95505.34;;;-1.23;47.17
11415;BME280;5763;42.714;23.244;2024-01-10T03:51:51;95506.16;;;-1.41;47.25
11415;BME280;5763;42.714;23.244;2024-01-10T03:54:19;95377.75;;;-2.18;46.76
11415;BME280;5763;42.714;23.244;2024-01-10T03:56:46;95524.53;;;-1.02;46.55
11415;BME280;5763;42.714;23.244;2024-01-10T03:59:13;95570.88;;;-0.67;46.30
11415;BME280;5763;42.714;23.244;2024-01-10T04:01:40;95375.38;;;-1.85;46.31
11415;BME280;5763;42.714;23.244;2024-01-10T04:04:07;95442.59;;;-1.75;46.23
11415;BME280;5763;42.714;23.244;2024-01-10T04:06:35;95547.38;;;-0.70;46.18
11415;BME280;5763;42.714;23.244;2024-01-10T04:09:03;95417.75;;;-1.53;46.64
11415;BME280;5763;42.714;23.244;2024-01-10T04:11:34;95515.06;;;-0.96;46.66
11415;BME280;5763;42.714;23.244;2024-01-10T04:14:01;95588.66;;;-0.36;46.35
11415;BME280;5763;42.714;23.244;2024-01-10T04:16:29;95524.94;;;-0.81;47.12
11415;BME280;5763;42.714;23.244;2024-01-10T04:18:56;95583.91;;;-0.46;46.78
11415;BME280;5763;42.714;23.244;2024-01-10T04:21:24;95604.75;;;-0.81;47.22
11415;BME280;5763;42.714;23.244;2024-01-10T04:23:51;95524.44;;;-1.08;46.92
11415;BME280;5763;42.714;23.244;2024-01-10T04:26:20;95525.28;;;-1.23;47.38
11415;BME280;5763;42.714;23.244;2024-01-10T04:28:47;95406.84;;;-2.01;47.34
11415;BME280;5763;42.714;23.244;2024-01-10T04:31:14;95641.22;;;-0.61;47.04
11415;BME280;5763;42.714;23.244;2024-01-10T04:33:41;95357.78;;;-2.21;47.08
11415;BME280;5763;42.714;23.244;2024-01-10T04:36:09;95597.53;;;-0.77;46.83
11415;BME280;5763;42.714;23.244;2024-01-10T04:38:36;95497.31;;;-1.42;46.92
11415;BME280;5763;42.714;23.244;2024-01-10T04:41:03;95614.06;;;-0.56;46.82
11415;BME280;5763;42.714;23.244;2024-01-10T04:43:32;95629.53;;;-0.50;46.00
11415;BME280;5763;42.714;23.244;2024-01-10T04:45:59;95591.94;;;-0.68;44.74
11415;BME280;5763;42.714;23.244;2024-01-10T04:48:26;95619.97;;;-0.47;44.53
11415;BME280;5763;42.714;23.244;2024-01-10T04:50:53;95551.63;;;-0.91;44.45
11415;BME280;5763;42.714;23.244;2024-01-10T04:53:21;95634.66;;;-0.41;43.75
11415;BME280;5763;42.714;23.244;2024-01-10T04:55:48;95609.13;;;-0.73;44.18
11415;BME280;5763;42.714;23.244;2024-01-10T04:58:15;95525.97;;;-1.27;44.47
11415;BME280;5763;42.714;23.244;2024-01-10T05:00:44;95686.47;;;-0.63;44.49
11415;BME280;5763;42.714;23.244;2024-01-10T05:03:11;95634.78;;;-0.57;43.98
11415;BME280;5763;42.714;23.244;2024-01-10T05:05:38;95467.53;;;-1.55;43.53
11415;BME280;5763;42.714;23.244;2024-01-10T05:08:07;95594.00;;;-0.81;44.28
11415;BME280;5763;42.714;23.244;2024-01-10T05:10:34;95561.56;;;-0.92;43.71
11415;BME280;5763;42.714;23.244;2024-01-10T05:13:01;95515.41;;;-1.19;43.62
11415;BME280;5763;42.714;23.244;2024-01-10T05:15:29;95522.16;;;-1.26;43.89
11415;BME280;5763;42.714;23.244;2024-01-10T05:17:58;95468.78;;;-1.68;44.31
11415;BME280;5763;42.714;23.244;2024-01-10T05:20:25;95511.91;;;-1.39;44.47
11415;BME280;5763;42.714;23.244;2024-01-10T05:22:53;95562.69;;;-0.93;44.32
11415;BME280;5763;42.714;23.244;2024-01-10T05:25:24;95524.16;;;-1.23;43.54
11415;BME280;5763;42.714;23.244;2024-01-10T05:27:51;95591.63;;;-0.86;43.11
11415;BME280;5763;42.714;23.244;2024-01-10T05:30:21;95641.84;;;-0.48;43.20
11415;BME280;5763;42.714;23.244;2024-01-10T05:32:48;95646.72;;;-0.54;42.81
11415;BME280;5763;42.714;23.244;2024-01-10T05:35:17;95622.19;;;-0.91;43.72
11415;BME280;5763;42.714;23.244;2024-01-10T05:37:44;95593.44;;;-1.09;43.37
11415;BME280;5763;42.714;23.244;2024-01-10T05:40:12;95495.13;;;-1.74;42.98
11415;BME280;5763;42.714;23.244;2024-01-10T05:42:39;95609.19;;;-1.27;43.37
11415;BME280;5763;42.714;23.244;2024-01-10T05:45:09;95625.88;;;-0.80;42.96
11415;BME280;5763;42.714;23.244;2024-01-10T05:47:36;95526.88;;;-1.76;42.63
11415;BME280;5763;42.714;23.244;2024-01-10T05:50:04;95463.41;;;-2.06;43.22
11415;BME280;5763;42.714;23.244;2024-01-10T05:52:34;95619.91;;;-0.92;43.36
11415;BME280;5763;42.714;23.244;2024-01-10T05:55:01;95652.31;;;-0.82;42.76
11415;BME280;5763;42.714;23.244;2024-01-10T05:57:29;95674.22;;;-0.80;42.83
11415;BME280;5763;42.714;23.244;2024-01-10T05:59:58;95584.47;;;-1.17;42.25
11415;BME280;5763;42.714;23.244;2024-01-10T06:02:26;95666.03;;;-0.68;42.76
11415;BME280;5763;42.714;23.244;2024-01-10T06:04:53;95587.38;;;-1.25;42.67
11415;BME280;5763;42.714;23.244;2024-01-10T06:07:20;95512.31;;;-1.75;42.40
11415;BME280;5763;42.714;23.244;2024-01-10T06:09:49;95573.53;;;-1.80;42.59
11415;BME280;5763;42.714;23.244;2024-01-10T06:12:16;95564.06;;;-1.40;42.04
11415;BME280;5763;42.714;23.244;2024-01-10T06:14:44;95515.00;;;-1.94;42.41
11415;BME280;5763;42.714;23.244;2024-01-10T06:17:12;95705.44;;;-0.75;42.34
11415;BME280;5763;42.714;23.244;2024-01-10T06:19:39;95468.25;;;-2.12;41.93
11415;BME280;5763;42.714;23.244;2024-01-10T06:22:06;95668.44;;;-0.82;42.10
11415;BME280;5763;42.714;23.244;2024-01-10T06:24:34;95589.13;;;-1.33;41.57
11415;BME280;5763;42.714;23.244;2024-01-10T06:27:03;95610.91;;;-1.18;41.99
11415;BME280;5763;42.714;23.244;2024-01-10T06:29:30;95646.47;;;-1.06;42.15
11415;BME280;5763;42.714;23.244;2024-01-10T06:31:59;95564.31;;;-1.45;42.19
11415;BME280;5763;42.714;23.244;2024-01-10T06:34:28;95634.16;;;-1.07;43.05
11415;BME280;5763;42.714;23.244;2024-01-10T06:36:55;95543.47;;;-1.70;42.30
11415;BME280;5763;42.714;23.244;2024-01-10T06:39:23;95701.94;;;-0.94;42.30
11415;BME280;5763;42.714;23.244;2024-01-10T06:41:52;95560.38;;;-1.85;42.56
11415;BME280;5763;42.714;23.244;2024-01-10T06:44:21;95617.44;;;-1.35;42.17
11415;BME280;5763;42.714;23.244;2024-01-10T06:46:49;95626.63;;;-1.36;42.57
11415;BME280;5763;42.714;23.244;2024-01-10T06:49:45;95500.97;;;-2.22;42.25
11415;BME280;5763;42.714;23.244;2024-01-10T06:52:21;95526.00;;;-1.99;41.65
11415;BME280;5763;42.714;23.244;2024-01-10T06:54:49;95525.69;;;-2.13;41.49
11415;BME280;5763;42.714;23.244;2024-01-10T06:57:16;95719.22;;;-0.57;42.22
11415;BME280;5763;42.714;23.244;2024-01-10T06:59:45;95634.47;;;-1.27;41.75
11415;BME280;5763;42.714;23.244;2024-01-10T07:02:13;95661.72;;;-0.72;42.14
11415;BME280;5763;42.714;23.244;2024-01-10T07:04:40;95648.66;;;-0.73;42.35
11415;BME280;5763;42.714;23.244;2024-01-10T07:07:07;95644.84;;;-0.73;42.04
11415;BME280;5763;42.714;23.244;2024-01-10T07:09:35;95647.22;;;-0.68;41.76
11415;BME280;5763;42.714;23.244;2024-01-10T07:12:02;95633.81;;;-0.68;41.69
11415;BME280;5763;42.714;23.244;2024-01-10T07:14:30;95574.00;;;-1.22;41.42
11415;BME280;5763;42.714;23.244;2024-01-10T07:16:59;95630.91;;;-0.97;41.24
11415;BME280;5763;42.714;23.244;2024-01-10T07:19:26;95594.47;;;-0.76;41.24
11415;BME280;5763;42.714;23.244;2024-01-10T07:21:53;95653.84;;;-0.43;41.97
11415;BME280;5763;42.714;23.244;2024-01-10T07:24:21;95613.28;;;-0.57;41.73
11415;BME280;5763;42.714;23.244;2024-01-10T07:26:48;95510.44;;;-1.17;41.88
11415;BME280;5763;42.714;23.244;2024-01-10T07:29:15;95525.81;;;-0.96;41.55
11415;BME280;5763;42.714;23.244;2024-01-10T07:31:45;95653.00;;;-0.28;41.65
11415;BME280;5763;42.714;23.244;2024-01-10T07:34:13;95630.03;;;-0.22;41.63
11415;BME280;5763;42.714;23.244;2024-01-10T07:36:44;95639.38;;;-0.16;40.76
11415;BME280;5763;42.714;23.244;2024-01-10T07:39:11;95544.59;;;-0.54;40.58
11415;BME280;5763;42.714;23.244;2024-01-10T07:41:41;95657.47;;;0.10;41.10
11415;BME280;5763;42.714;23.244;2024-01-10T07:44:08;95695.44;;;0.27;40.83
11415;BME280;5763;42.714;23.244;2024-01-10T07:46:37;95675.47;;;0.28;40.58
11415;BME280;5763;42.714;23.244;2024-01-10T07:49:05;95720.22;;;0.62;39.98
11415;BME280;5763;42.714;23.244;2024-01-10T07:51:34;95737.03;;;1.04;39.43
11415;BME280;5763;42.714;23.244;2024-01-10T07:54:01;95643.59;;;0.30;38.38
11415;BME280;5763;42.714;23.244;2024-01-10T07:56:31;95536.34;;;-0.42;38.59
11415;BME280;5763;42.714;23.244;2024-01-10T07:58:58;95628.91;;;0.50;38.26
11415;BME280;5763;42.714;23.244;2024-01-10T08:01:26;95639.03;;;0.86;38.19
11415;BME280;5763;42.714;23.244;2024-01-10T08:03:53;95553.19;;;0.85;36.46
11415;BME280;5763;42.714;23.244;2024-01-10T08:06:23;95735.75;;;2.20;36.29
11415;BME280;5763;42.714;23.244;2024-01-10T08:08:52;95511.53;;;1.12;36.49
11415;BME280;5763;42.714;23.244;2024-01-10T08:11:21;95550.47;;;1.54;35.73
11415;BME280;5763;42.714;23.244;2024-01-10T08:13:48;95735.13;;;3.34;35.14
11415;BME280;5763;42.714;23.244;2024-01-10T08:16:19;95623.97;;;2.78;33.48
11415;BME280;5763;42.714;23.244;2024-01-10T08:18:49;95651.84;;;2.89;33.34
11415;BME280;5763;42.714;23.244;2024-01-10T08:21:16;95705.44;;;3.41;33.65
11415;BME280;5763;42.714;23.244;2024-01-10T08:23:43;95705.03;;;3.39;32.90
11415;BME280;5763;42.714;23.244;2024-01-10T08:26:12;95736.19;;;3.91;33.39
11415;BME280;5763;42.714;23.244;2024-01-10T08:28:39;95655.16;;;3.37;33.40
11415;BME280;5763;42.714;23.244;2024-01-10T08:31:07;95539.09;;;2.93;33.23
11415;BME280;5763;42.714;23.244;2024-01-10T08:33:34;95568.22;;;3.28;34.03
11415;BME280;5763;42.714;23.244;2024-01-10T08:36:01;95745.28;;;4.96;32.76
11415;BME280;5763;42.714;23.244;2024-01-10T08:38:29;95779.38;;;5.15;32.37
11415;BME280;5763;42.714;23.244;2024-01-10T08:40:56;95537.00;;;4.00;32.15
11415;BME280;5763;42.714;23.244;2024-01-10T08:43:25;95718.06;;;5.52;31.60
11415;BME280;5763;42.714;23.244;2024-01-10T08:45:55;95639.53;;;4.86;31.50
11415;BME280;5763;42.714;23.244;2024-01-10T08:48:23;95719.94;;;5.73;30.17
11415;BME280;5763;42.714;23.244;2024-01-10T08:50:50;95755.16;;;6.08;29.68
11415;BME280;5763;42.714;23.244;2024-01-10T08:53:19;95668.31;;;5.87;28.98
11415;BME280;5763;42.714;23.244;2024-01-10T08:55:47;95724.75;;;6.30;29.45
11415;BME280;5763;42.714;23.244;2024-01-10T08:58:15;95715.53;;;6.10;29.29
11415;BME280;5763;42.714;23.244;2024-01-10T09:00:44;95571.38;;;5.73;28.63
11415;BME280;5763;42.714;23.244;2024-01-10T09:03:12;95610.59;;;6.30;28.34
11415;BME280;5763;42.714;23.244;2024-01-10T09:05:41;95622.22;;;6.34;28.28
11415;BME280;5763;42.714;23.244;2024-01-10T09:08:08;95746.78;;;7.08;28.66
11415;BME280;5763;42.714;23.244;2024-01-10T09:10:36;95763.91;;;7.49;28.03
11415;BME280;5763;42.714;23.244;2024-01-10T09:13:04;95571.13;;;6.15;28.05
11415;BME280;5763;42.714;23.244;2024-01-10T09:15:31;95765.50;;;7.46;28.18
11415;BME280;5763;42.714;23.244;2024-01-10T09:18:00;95681.69;;;7.24;28.28
11415;BME280;5763;42.714;23.244;2024-01-10T09:20:28;95619.97;;;7.14;28.68
11415;BME280;5763;42.714;23.244;2024-01-10T09:22:56;95562.88;;;7.10;28.80
11415;BME280;5763;42.714;23.244;2024-01-10T09:25:25;95657.25;;;7.87;28.09
11415;BME280;5763;42.714;23.244;2024-01-10T09:27:53;95540.69;;;7.08;28.00
11415;BME280;5763;42.714;23.244;2024-01-10T09:30:20;95710.59;;;8.48;27.35
11415;BME280;5763;42.714;23.244;2024-01-10T09:32:50;95657.16;;;8.24;27.34
11415;BME280;5763;42.714;23.244;2024-01-10T09:35:19;95608.50;;;8.19;26.21
11415;BME280;5763;42.714;23.244;2024-01-10T09:37:48;95646.34;;;8.14;27.26
11415;BME280;5763;42.714;23.244;2024-01-10T09:40:16;95698.63;;;8.92;27.49
11415;BME280;5763;42.714;23.244;2024-01-10T09:42:44;95632.94;;;8.30;25.91
11415;BME280;5763;42.714;23.244;2024-01-10T09:45:11;95705.81;;;9.05;25.66
11415;BME280;5763;42.714;23.244;2024-01-10T09:47:40;95642.13;;;8.89;25.02
11415;BME280;5763;42.714;23.244;2024-01-10T09:50:09;95615.00;;;9.01;24.02
11415;BME280;5763;42.714;23.244;2024-01-10T09:52:41;95632.34;;;8.91;25.43
11415;BME280;5763;42.714;23.244;2024-01-10T09:55:13;95663.03;;;9.22;24.92
11415;BME280;5763;42.714;23.244;2024-01-10T09:57:42;95650.44;;;8.82;25.14
11415;BME280;5763;42.714;23.244;2024-01-10T10:00:11;95653.22;;;9.01;24.94
11415;BME280;5763;42.714;23.244;2024-01-10T10:02:41;95548.19;;;7.91;25.19
11415;BME280;5763;42.714;23.244;2024-01-10T10:05:14;95559.75;;;7.72;25.33
11415;BME280;5763;42.714;23.244;2024-01-10T10:07:48;95626.31;;;8.31;25.57
11415;BME280;5763;42.714;23.244;2024-01-10T10:10:16;95627.47;;;9.02;24.61
11415;BME280;5763;42.714;23.244;2024-01-10T10:12:43;95637.50;;;9.51;23.53
11415;BME280;5763;42.714;23.244;2024-01-10T10:15:12;95615.00;;;9.44;23.84
11415;BME280;5763;42.714;23.244;2024-01-10T10:17:43;95673.22;;;9.80;24.35
11415;BME280;5763;42.714;23.244;2024-01-10T10:20:14;95604.97;;;9.18;24.80
11415;BME280;5763;42.714;23.244;2024-01-10T10:22:58;95617.44;;;9.38;24.27
11415;BME280;5763;42.714;23.244;2024-01-10T10:25:27;95560.25;;;9.08;24.59
11415;BME280;5763;42.714;23.244;2024-01-10T10:27:56;95511.97;;;9.05;24.26
11415;BME280;5763;42.714;23.244;2024-01-10T10:30:24;95600.72;;;9.75;24.01
11415;BME280;5763;42.714;23.244;2024-01-10T10:32:51;95687.22;;;10.40;23.48
11415;BME280;5763;42.714;23.244;2024-01-10T10:35:18;95678.28;;;10.56;24.50
11415;BME280;5763;42.714;23.244;2024-01-10T10:37:48;95507.13;;;9.87;23.71
11415;BME280;5763;42.714;23.244;2024-01-10T10:40:18;95570.97;;;10.48;23.45
11415;BME280;5763;42.714;23.244;2024-01-10T10:42:46;95596.53;;;11.34;23.61
11415;BME280;5763;42.714;23.244;2024-01-10T10:45:18;95459.88;;;10.51;22.47
11415;BME280;5763;42.714;23.244;2024-01-10T10:47:56;95653.06;;;11.73;22.28
11415;BME280;5763;42.714;23.244;2024-01-10T10:50:26;95493.13;;;10.94;21.90
11415;BME280;5763;42.714;23.244;2024-01-10T10:52:55;95454.63;;;11.13;21.85
11415;BME280;5763;42.714;23.244;2024-01-10T10:55:24;95521.16;;;11.55;21.31
11415;BME280;5763;42.714;23.244;2024-01-10T10:57:54;95521.34;;;11.89;21.53
11415;BME280;5763;42.714;23.244;2024-01-10T11:00:22;95473.94;;;11.76;21.10
11415;BME280;5763;42.714;23.244;2024-01-10T11:02:53;95638.84;;;12.31;21.58
11415;BME280;5763;42.714;23.244;2024-01-10T11:05:21;95619.03;;;11.99;21.42
11415;BME280;5763;42.714;23.244;2024-01-10T11:07:49;95583.63;;;11.76;22.10
11415;BME280;5763;42.714;23.244;2024-01-10T11:10:21;95532.56;;;11.53;22.59
11415;BME280;5763;42.714;23.244;2024-01-10T11:13:03;95621.13;;;12.20;22.32
11415;BME280;5763;42.714;23.244;2024-01-10T11:15:53;95426.47;;;10.72;22.75
11415;BME280;5763;42.714;23.244;2024-01-10T11:21:21;95557.31;;;11.50;22.36
11415;BME280;5763;42.714;23.244;2024-01-10T11:23:53;95524.97;;;11.98;21.06
11415;BME280;5763;42.714;23.244;2024-01-10T11:26:21;95485.91;;;11.94;21.93
11415;BME280;5763;42.714;23.244;2024-01-10T11:28:50;95488.34;;;11.92;21.99
11415;BME280;5763;42.714;23.244;2024-01-10T11:31:28;95532.22;;;12.30;21.47
11415;BME280;5763;42.714;23.244;2024-01-10T11:33:56;95415.00;;;12.05;20.45
11415;BME280;5763;42.714;23.244;2024-01-10T11:36:23;95513.91;;;13.63;20.00
11415;BME280;5763;42.714;23.244;2024-01-10T11:38:58;95473.56;;;13.90;19.92
11415;BME280;5763;42.714;23.244;2024-01-10T11:41:28;95489.81;;;13.45;19.97
11415;BME280;5763;42.714;23.244;2024-01-10T11:47:10;95472.31;;;14.79;18.91
11415;BME280;5763;42.714;23.244;2024-01-10T11:49:37;95449.97;;;15.40;18.08
11415;BME280;5763;42.714;23.244;2024-01-10T11:52:08;95478.78;;;16.40;17.29
11415;BME280;5763;42.714;23.244;2024-01-10T11:54:40;95546.06;;;16.70;17.33
11415;BME280;5763;42.714;23.244;2024-01-10T11:57:11;95481.16;;;17.80;16.77
11415;BME280;5763;42.714;23.244;2024-01-10T11:59:41;95441.25;;;18.90;15.10
11415;BME280;5763;42.714;23.244;2024-01-10T12:02:11;95416.97;;;18.85;15.23
11415;BME280;5763;42.714;23.244;2024-01-10T12:04:39;95463.91;;;19.74;14.29
11415;BME280;5763;42.714;23.244;2024-01-10T12:07:07;95479.09;;;21.02;13.75
11415;BME280;5763;42.714;23.244;2024-01-10T12:09:38;95552.91;;;21.93;13.45
11415;BME280;5763;42.714;23.244;2024-01-10T12:12:07;95503.97;;;21.86;13.39
11415;BME280;5763;42.714;23.244;2024-01-10T12:14:36;95462.06;;;21.48;13.57
11415;BME280;5763;42.714;23.244;2024-01-10T12:17:03;95518.22;;;22.10;13.52
11415;BME280;5763;42.714;23.244;2024-01-10T12:19:35;95467.03;;;22.13;12.95
11415;BME280;5763;42.714;23.244;2024-01-10T12:22:04;95381.56;;;22.49;12.62
11415;BME280;5763;42.714;23.244;2024-01-10T12:24:42;95383.41;;;23.09;12.44
11415;BME280;5763;42.714;23.244;2024-01-10T12:27:10;95433.88;;;23.22;12.25
11415;BME280;5763;42.714;23.244;2024-01-10T12:29:38;95463.00;;;22.58;12.23
11415;BME280;5763;42.714;23.244;2024-01-10T12:32:05;95450.31;;;22.02;12.64
11415;BME280;5763;42.714;23.244;2024-01-10T12:34:38;95477.19;;;22.60;12.36
11415;BME280;5763;42.714;23.244;2024-01-10T12:37:06;95520.31;;;22.54;12.40
11415;BME280;5763;42.714;23.244;2024-01-10T12:39:38;95455.63;;;21.95;12.94
11415;BME280;5763;42.714;23.244;2024-01-10T12:42:08;95512.13;;;21.95;12.98
11415;BME280;5763;42.714;23.244;2024-01-10T12:44:35;95472.81;;;21.77;13.04
11415;BME280;5763;42.714;23.244;2024-01-10T12:47:03;95378.22;;;20.71;13.12
11415;BME280;5763;42.714;23.244;2024-01-10T12:49:30;95381.94;;;20.15;14.24
11415;BME280;5763;42.714;23.244;2024-01-10T12:51:59;95374.31;;;19.48;14.35
11415;BME280;5763;42.714;23.244;2024-01-10T12:54:26;95450.19;;;20.52;13.66
11415;BME280;5763;42.714;23.244;2024-01-10T12:56:53;95518.94;;;21.89;13.34
11415;BME280;5763;42.714;23.244;2024-01-10T12:59:22;95478.13;;;21.80;13.24
11415;BME280;5763;42.714;23.244;2024-01-10T13:01:49;95469.06;;;21.21;13.05
11415;BME280;5763;42.714;23.244;2024-01-10T13:04:17;95417.03;;;19.56;14.40
11415;BME280;5763;42.714;23.244;2024-01-10T13:06:44;95428.84;;;18.31;14.74
11415;BME280;5763;42.714;23.244;2024-01-10T13:09:13;95358.16;;;16.61;16.02
11415;BME280;5763;42.714;23.244;2024-01-10T13:11:41;95528.50;;;17.96;15.87
11415;BME280;5763;42.714;23.244;2024-01-10T13:14:08;95517.22;;;17.99;16.42
11415;BME280;5763;42.714;23.244;2024-01-10T13:16:36;95471.56;;;17.13;16.65